sensor_id;sensor_type;location;lat;lon;timestamp;P1;durP1;ratioP1;P2;durP2;ratioP2
6426;SDS011;3246;42.664;23.308;2024-01-15T00:00:26;120.93;;;70.87;;
6426;SDS011;3246;42.664;23.308;2024-01-15T00:02:52;126.63;;;69.37;;
6426;SDS011;3246;42.664;23.308;2024-01-15T00:05:20;127.93;;;68.47;;
6426;SDS011;3246;42.664;23.308;2024-01-15T00:07:46;143.37;;;72.63;;
6426;SDS011;3246;42.664;23.308;2024-01-15T00:10:13;122.40;;;67.27;;
6426;SDS011;3246;42.664;23.308;2024-01-15T00:12:39;127.07;;;67.23;;
6426;SDS011;3246;42.664;23.308;2024-01-15T00:15:06;134.37;;;66.43;;
6426;SDS011;3246;42.664;23.308;2024-01-15T00:17:33;131.90;;;69.30;;
6426;SDS011;3246;42.664;23.308;2024-01-15T00:19:59;132.43;;;68.83;;
6426;SDS011;3246;42.664;23.308;2024-01-15T00:22:27;129.23;;;71.87;;
6426;SDS011;3246;42.664;23.308;2024-01-15T00:24:54;134.63;;;67.27;;
6426;SDS011;3246;42.664;23.308;2024-01-15T00:27:20;122.70;;;70.53;;
6426;SDS011;3246;42.664;23.308;2024-01-15T00:29:47;141.60;;;76.73;;
6426;SDS011;3246;42.664;23.308;2024-01-15T00:32:15;134.77;;;74.07;;
6426;SDS011;3246;42.664;23.308;2024-01-15T00:34:41;133.10;;;74.60;;
6426;SDS011;3246;42.664;23.308;2024-01-15T00:37:08;126.47;;;68.33;;
6426;SDS011;3246;42.664;23.308;2024-01-15T00:39:38;130.23;;;68.53;;
6426;SDS011;3246;42.664;23.308;2024-01-15T00:42:05;123.47;;;72.17;;
6426;SDS011;3246;42.664;23.308;2024-01-15T00:44:31;132.77;;;73.10;;
6426;SDS011;3246;42.664;23.308;2024-01-15T00:46:58;126.87;;;67.57;;
6426;SDS011;3246;42.664;23.308;2024-01-15T00:49:24;123.33;;;67.23;;
6426;SDS011;3246;42.664;23.308;2024-01-15T00:51:51;119.93;;;67.03;;
6426;SDS011;3246;42.664;23.308;2024-01-15T00:54:17;121.43;;;64.40;;
6426;SDS011;3246;42.664;23.308;2024-01-15T00:56:45;126.13;;;65.97;;
6426;SDS011;3246;42.664;23.308;2024-01-15T00:59:12;111.03;;;61.83;;
6426;SDS011;3246;42.664;23.308;2024-01-15T01:01:40;106.60;;;57.23;;
6426;SDS011;3246;42.664;23.308;2024-01-15T01:04:08;86.70;;;49.57;;
6426;SDS011;3246;42.664;23.308;2024-01-15T01:06:34;75.03;;;43.90;;
6426;SDS011;3246;42.664;23.308;2024-01-15T01:09:01;81.27;;;43.93;;
6426;SDS011;3246;42.664;23.308;2024-01-15T01:11:27;79.37;;;44.37;;
6426;SDS011;3246;42.664;23.308;2024-01-15T01:13:55;78.33;;;42.37;;
6426;SDS011;3246;42.664;23.308;2024-01-15T01:16:22;84.40;;;43.73;;
6426;SDS011;3246;42.664;23.308;2024-01-15T01:18:48;68.93;;;41.40;;
6426;SDS011;3246;42.664;23.308;2024-01-15T01:21:15;75.67;;;41.90;;
6426;SDS011;3246;42.664;23.308;2024-01-15T01:23:41;66.53;;;36.77;;
6426;SDS011;3246;42.664;23.308;2024-01-15T01:26:08;64.47;;;37.07;;
6426;SDS011;3246;42.664;23.308;2024-01-15T01:28:34;63.33;;;38.00;;
6426;SDS011;3246;42.664;23.308;2024-01-15T01:31:02;69.07;;;43.07;;
6426;SDS011;3246;42.664;23.308;2024-01-15T01:33:29;81.00;;;45.27;;
6426;SDS011;3246;42.664;23.308;2024-01-15T01:35:55;90.33;;;50.40;;
6426;SDS011;3246;42.664;23.308;2024-01-15T01:38:22;98.67;;;54.27;;
6426;SDS011;3246;42.664;23.308;2024-01-15T01:40:49;108.07;;;57.33;;
6426;SDS011;3246;42.664;23.308;2024-01-15T01:43:15;115.47;;;58.77;;
6426;SDS011;3246;42.664;23.308;2024-01-15T01:45:43;98.80;;;56.93;;
6426;SDS011;3246;42.664;23.308;2024-01-15T01:48:10;109.77;;;60.33;;
6426;SDS011;3246;42.664;23.308;2024-01-15T01:50:37;110.93;;;58.87;;
6426;SDS011;3246;42.664;23.308;2024-01-15T01:53:03;108.50;;;58.10;;
6426;SDS011;3246;42.664;23.308;2024-01-15T01:55:30;103.13;;;58.77;;
6426;SDS011;3246;42.664;23.308;2024-01-15T01:57:58;113.60;;;61.57;;
6426;SDS011;3246;42.664;23.308;2024-01-15T02:00:25;104.80;;;58.60;;
6426;SDS011;3246;42.664;23.308;2024-01-15T02:02:51;104.27;;;52.83;;
6426;SDS011;3246;42.664;23.308;2024-01-15T02:05:19;96.73;;;51.20;;
6426;SDS011;3246;42.664;23.308;2024-01-15T02:07:47;98.93;;;53.03;;
6426;SDS011;3246;42.664;23.308;2024-01-15T02:10:13;76.17;;;43.33;;
6426;SDS011;3246;42.664;23.308;2024-01-15T02:12:40;85.90;;;47.90;;
6426;SDS011;3246;42.664;23.308;2024-01-15T02:15:06;92.87;;;51.93;;
6426;SDS011;3246;42.664;23.308;2024-01-15T02:17:33;94.53;;;51.40;;
6426;SDS011;3246;42.664;23.308;2024-01-15T02:20:00;83.47;;;46.83;;
6426;SDS011;3246;42.664;23.308;2024-01-15T02:22:27;80.50;;;47.37;;
6426;SDS011;3246;42.664;23.308;2024-01-15T02:24:55;84.27;;;48.73;;
6426;SDS011;3246;42.664;23.308;2024-01-15T02:27:22;62.73;;;34.63;;
6426;SDS011;3246;42.664;23.308;2024-01-15T02:29:48;72.07;;;39.23;;
6426;SDS011;3246;42.664;23.308;2024-01-15T02:32:15;56.00;;;34.83;;
6426;SDS011;3246;42.664;23.308;2024-01-15T02:34:42;73.47;;;40.83;;
6426;SDS011;3246;42.664;23.308;2024-01-15T02:37:08;55.97;;;36.30;;
6426;SDS011;3246;42.664;23.308;2024-01-15T02:39:35;54.17;;;33.60;;
6426;SDS011;3246;42.664;23.308;2024-01-15T02:42:03;54.80;;;32.07;;
6426;SDS011;3246;42.664;23.308;2024-01-15T02:44:29;51.90;;;31.00;;
6426;SDS011;3246;42.664;23.308;2024-01-15T02:46:55;54.17;;;30.97;;
6426;SDS011;3246;42.664;23.308;2024-01-15T02:49:22;54.90;;;30.57;;
6426;SDS011;3246;42.664;23.308;2024-01-15T02:51:48;50.63;;;29.83;;
6426;SDS011;3246;42.664;23.308;2024-01-15T02:54:15;59.73;;;31.33;;
6426;SDS011;3246;42.664;23.308;2024-01-15T02:56:41;59.63;;;35.77;;
6426;SDS011;3246;42.664;23.308;2024-01-15T02:59:09;58.27;;;35.07;;
6426;SDS011;3246;42.664;23.308;2024-01-15T03:01:36;52.93;;;33.67;;
6426;SDS011;3246;42.664;23.308;2024-01-15T03:04:02;60.70;;;33.27;;
6426;SDS011;3246;42.664;23.308;2024-01-15T03:06:29;62.13;;;36.63;;
6426;SDS011;3246;42.664;23.308;2024-01-15T03:08:55;66.07;;;38.37;;
6426;SDS011;3246;42.664;23.308;2024-01-15T03:11:22;79.40;;;41.97;;
6426;SDS011;3246;42.664;23.308;2024-01-15T03:13:48;75.70;;;40.67;;
6426;SDS011;3246;42.664;23.308;2024-01-15T03:16:16;80.03;;;46.13;;
6426;SDS011;3246;42.664;23.308;2024-01-15T03:18:44;94.23;;;52.10;;
6426;SDS011;3246;42.664;23.308;2024-01-15T03:21:11;92.60;;;52.97;;
6426;SDS011;3246;42.664;23.308;2024-01-15T03:23:37;114.77;;;64.83;;
6426;SDS011;3246;42.664;23.308;2024-01-15T03:26:04;115.50;;;66.00;;
6426;SDS011;3246;42.664;23.308;2024-01-15T03:28:30;114.00;;;65.57;;
6426;SDS011;3246;42.664;23.308;2024-01-15T03:30:57;116.00;;;65.97;;
6426;SDS011;3246;42.664;23.308;2024-01-15T03:33:25;119.20;;;70.67;;
6426;SDS011;3246;42.664;23.308;2024-01-15T03:35:51;129.30;;;71.13;;
6426;SDS011;3246;42.664;23.308;2024-01-15T03:38:18;130.60;;;73.77;;
6426;SDS011;3246;42.664;23.308;2024-01-15T03:40:44;125.50;;;70.63;;
6426;SDS011;3246;42.664;23.308;2024-01-15T03:43:11;122.17;;;70.37;;
6426;SDS011;3246;42.664;23.308;2024-01-15T03:45:38;128.97;;;72.37;;
6426;SDS011;3246;42.664;23.308;2024-01-15T03:48:05;141.00;;;79.13;;
6426;SDS011;3246;42.664;23.308;2024-01-15T03:50:33;134.03;;;74.87;;
6426;SDS011;3246;42.664;23.308;2024-01-15T03:52:59;130.67;;;74.03;;
6426;SDS011;3246;42.664;23.308;2024-01-15T03:55:25;138.87;;;73.47;;
6426;SDS011;3246;42.664;23.308;2024-01-15T03:57:52;130.50;;;70.60;;
6426;SDS011;3246;42.664;23.308;2024-01-15T04:00:19;127.70;;;72.80;;
6426;SDS011;3246;42.664;23.308;2024-01-15T04:02:45;129.30;;;69.13;;
6426;SDS011;3246;42.664;23.308;2024-01-15T04:05:12;126.43;;;72.97;;
6426;SDS011;3246;42.664;23.308;2024-01-15T04:07:40;128.10;;;71.87;;
6426;SDS011;3246;42.664;23.308;2024-01-15T04:10:06;136.03;;;74.27;;
6426;SDS011;3246;42.664;23.308;2024-01-15T04:12:33;117.47;;;69.10;;
6426;SDS011;3246;42.664;23.308;2024-01-15T04:14:59;131.90;;;68.97;;
6426;SDS011;3246;42.664;23.308;2024-01-15T04:17:26;122.40;;;68.80;;
6426;SDS011;3246;42.664;23.308;2024-01-15T04:19:53;124.43;;;66.27;;
6426;SDS011;3246;42.664;23.308;2024-01-15T04:22:19;124.87;;;65.93;;
6426;SDS011;3246;42.664;23.308;2024-01-15T04:24:47;131.70;;;71.30;;
6426;SDS011;3246;42.664;23.308;2024-01-15T04:27:13;122.80;;;71.10;;
6426;SDS011;3246;42.664;23.308;2024-01-15T04:29:40;138.03;;;73.33;;
6426;SDS011;3246;42.664;23.308;2024-01-15T04:32:06;126.53;;;68.47;;
6426;SDS011;3246;42.664;23.308;2024-01-15T04:34:33;126.20;;;72.17;;
6426;SDS011;3246;42.664;23.308;2024-01-15T04:36:59;120.27;;;67.13;;
6426;SDS011;3246;42.664;23.308;2024-01-15T04:39:26;119.93;;;67.57;;
6426;SDS011;3246;42.664;23.308;2024-01-15T04:41:54;121.83;;;65.67;;
6426;SDS011;3246;42.664;23.308;2024-01-15T04:44:20;125.57;;;67.90;;
6426;SDS011;3246;42.664;23.308;2024-01-15T04:46:47;113.27;;;63.67;;
6426;SDS011;3246;42.664;23.308;2024-01-15T04:49:13;118.00;;;67.33;;
6426;SDS011;3246;42.664;23.308;2024-01-15T04:51:40;114.83;;;64.83;;
6426;SDS011;3246;42.664;23.308;2024-01-15T04:54:06;129.60;;;65.77;;
6426;SDS011;3246;42.664;23.308;2024-01-15T04:56:33;123.97;;;65.87;;
6426;SDS011;3246;42.664;23.308;2024-01-15T04:59:00;121.03;;;66.67;;
6426;SDS011;3246;42.664;23.308;2024-01-15T05:01:30;122.23;;;68.97;;
6426;SDS011;3246;42.664;23.308;2024-01-15T05:03:56;131.03;;;69.20;;
6426;SDS011;3246;42.664;23.308;2024-01-15T05:06:23;128.90;;;68.17;;
6426;SDS011;3246;42.664;23.308;2024-01-15T05:08:50;136.57;;;67.37;;
6426;SDS011;3246;42.664;23.308;2024-01-15T05:11:16;129.13;;;68.67;;
6426;SDS011;3246;42.664;23.308;2024-01-15T05:13:43;116.10;;;67.43;;
6426;SDS011;3246;42.664;23.308;2024-01-15T05:16:10;128.30;;;67.60;;
6426;SDS011;3246;42.664;23.308;2024-01-15T05:18:37;128.07;;;70.73;;
6426;SDS011;3246;42.664;23.308;2024-01-15T05:21:04;125.97;;;68.07;;
6426;SDS011;3246;42.664;23.308;2024-01-15T05:23:30;132.80;;;72.80;;
6426;SDS011;3246;42.664;23.308;2024-01-15T05:25:57;136.40;;;72.83;;
6426;SDS011;3246;42.664;23.308;2024-01-15T05:28:24;126.13;;;71.23;;
6426;SDS011;3246;42.664;23.308;2024-01-15T05:30:50;124.07;;;71.57;;
6426;SDS011;3246;42.664;23.308;2024-01-15T05:33:18;117.43;;;71.13;;
6426;SDS011;3246;42.664;23.308;2024-01-15T05:35:45;130.30;;;72.43;;
6426;SDS011;3246;42.664;23.308;2024-01-15T05:38:11;132.57;;;71.17;;
6426;SDS011;3246;42.664;23.308;2024-01-15T05:40:38;123.20;;;68.00;;
6426;SDS011;3246;42.664;23.308;2024-01-15T05:43:04;140.60;;;73.37;;
6426;SDS011;3246;42.664;23.308;2024-01-15T05:45:31;129.03;;;72.13;;
6426;SDS011;3246;42.664;23.308;2024-01-15T05:47:57;133.80;;;73.43;;
6426;SDS011;3246;42.664;23.308;2024-01-15T05:50:25;129.60;;;72.17;;
6426;SDS011;3246;42.664;23.308;2024-01-15T05:52:52;128.50;;;71.77;;
6426;SDS011;3246;42.664;23.308;2024-01-15T05:55:18;130.43;;;73.43;;
6426;SDS011;3246;42.664;23.308;2024-01-15T05:57:45;118.90;;;66.97;;
6426;SDS011;3246;42.664;23.308;2024-01-15T06:00:11;115.70;;;65.80;;
6426;SDS011;3246;42.664;23.308;2024-01-15T06:02:38;130.53;;;70.47;;
6426;SDS011;3246;42.664;23.308;2024-01-15T06:05:05;129.07;;;70.03;;
6426;SDS011;3246;42.664;23.308;2024-01-15T06:07:34;128.87;;;71.57;;
6426;SDS011;3246;42.664;23.308;2024-01-15T06:10:01;105.63;;;59.87;;
6426;SDS011;3246;42.664;23.308;2024-01-15T06:12:27;123.60;;;71.13;;
6426;SDS011;3246;42.664;23.308;2024-01-15T06:14:54;107.33;;;70.07;;
6426;SDS011;3246;42.664;23.308;2024-01-15T06:17:20;117.57;;;68.37;;
6426;SDS011;3246;42.664;23.308;2024-01-15T06:19:47;118.97;;;71.60;;
6426;SDS011;3246;42.664;23.308;2024-01-15T06:22:13;134.37;;;68.70;;
6426;SDS011;3246;42.664;23.308;2024-01-15T06:24:41;124.57;;;69.33;;
6426;SDS011;3246;42.664;23.308;2024-01-15T06:27:07;127.67;;;69.10;;
6426;SDS011;3246;42.664;23.308;2024-01-15T06:29:36;115.40;;;70.83;;
6426;SDS011;3246;42.664;23.308;2024-01-15T06:32:03;114.77;;;65.43;;
6426;SDS011;3246;42.664;23.308;2024-01-15T06:34:30;114.67;;;66.30;;
6426;SDS011;3246;42.664;23.308;2024-01-15T06:36:57;117.73;;;62.27;;
6426;SDS011;3246;42.664;23.308;2024-01-15T06:39:23;109.30;;;62.30;;
6426;SDS011;3246;42.664;23.308;2024-01-15T06:41:51;112.47;;;60.87;;
6426;SDS011;3246;42.664;23.308;2024-01-15T06:44:17;104.17;;;59.60;;
6426;SDS011;3246;42.664;23.308;2024-01-15T06:46:46;101.77;;;59.13;;
6426;SDS011;3246;42.664;23.308;2024-01-15T06:49:13;103.17;;;59.07;;
6426;SDS011;3246;42.664;23.308;2024-01-15T06:51:39;100.87;;;57.10;;
6426;SDS011;3246;42.664;23.308;2024-01-15T06:54:06;101.83;;;58.07;;
6426;SDS011;3246;42.664;23.308;2024-01-15T06:56:33;90.60;;;54.30;;
6426;SDS011;3246;42.664;23.308;2024-01-15T06:59:01;91.27;;;54.10;;
6426;SDS011;3246;42.664;23.308;2024-01-15T07:01:28;101.67;;;55.60;;
6426;SDS011;3246;42.664;23.308;2024-01-15T07:03:54;99.07;;;56.07;;
6426;SDS011;3246;42.664;23.308;2024-01-15T07:06:21;94.33;;;55.60;;
6426;SDS011;3246;42.664;23.308;2024-01-15T07:08:47;97.67;;;57.60;;
6426;SDS011;3246;42.664;23.308;2024-01-15T07:11:15;103.93;;;57.17;;
6426;SDS011;3246;42.664;23.308;2024-01-15T07:13:41;97.67;;;57.90;;
6426;SDS011;3246;42.664;23.308;2024-01-15T07:16:09;102.27;;;58.53;;
6426;SDS011;3246;42.664;23.308;2024-01-15T07:18:35;101.13;;;54.60;;
6426;SDS011;3246;42.664;23.308;2024-01-15T07:21:02;91.57;;;55.27;;
6426;SDS011;3246;42.664;23.308;2024-01-15T07:23:30;98.60;;;53.93;;
6426;SDS011;3246;42.664;23.308;2024-01-15T07:25:57;88.30;;;51.73;;
6426;SDS011;3246;42.664;23.308;2024-01-15T07:28:23;99.13;;;54.07;;
6426;SDS011;3246;42.664;23.308;2024-01-15T07:30:50;103.13;;;60.67;;
6426;SDS011;3246;42.664;23.308;2024-01-15T07:33:18;113.10;;;62.77;;
6426;SDS011;3246;42.664;23.308;2024-01-15T07:35:45;102.13;;;60.37;;
6426;SDS011;3246;42.664;23.308;2024-01-15T07:38:11;88.00;;;51.97;;
6426;SDS011;3246;42.664;23.308;2024-01-15T07:40:38;109.50;;;61.30;;
6426;SDS011;3246;42.664;23.308;2024-01-15T07:43:04;103.13;;;61.73;;
6426;SDS011;3246;42.664;23.308;2024-01-15T07:45:31;97.37;;;56.07;;
6426;SDS011;3246;42.664;23.308;2024-01-15T07:47:57;104.27;;;58.07;;
6426;SDS011;3246;42.664;23.308;2024-01-15T07:50:25;121.70;;;59.90;;
6426;SDS011;3246;42.664;23.308;2024-01-15T07:52:52;101.63;;;60.00;;
6426;SDS011;3246;42.664;23.308;2024-01-15T07:55:19;101.37;;;55.70;;
6426;SDS011;3246;42.664;23.308;2024-01-15T07:57:45;101.90;;;55.27;;
6426;SDS011;3246;42.664;23.308;2024-01-15T08:00:12;102.97;;;52.97;;
6426;SDS011;3246;42.664;23.308;2024-01-15T08:02:39;105.50;;;55.33;;
6426;SDS011;3246;42.664;23.308;2024-01-15T08:05:05;96.73;;;56.57;;
6426;SDS011;3246;42.664;23.308;2024-01-15T08:07:33;106.10;;;57.40;;
6426;SDS011;3246;42.664;23.308;2024-01-15T08:10:00;109.63;;;59.07;;
6426;SDS011;3246;42.664;23.308;2024-01-15T08:12:26;106.07;;;56.87;;
6426;SDS011;3246;42.664;23.308;2024-01-15T08:14:53;94.47;;;52.03;;
6426;SDS011;3246;42.664;23.308;2024-01-15T08:17:19;96.40;;;51.77;;
6426;SDS011;3246;42.664;23.308;2024-01-15T08:19:46;90.97;;;49.17;;
6426;SDS011;3246;42.664;23.308;2024-01-15T08:22:12;101.47;;;56.20;;
6426;SDS011;3246;42.664;23.308;2024-01-15T08:24:40;113.80;;;54.67;;
6426;SDS011;3246;42.664;23.308;2024-01-15T08:27:07;96.67;;;56.10;;
6426;SDS011;3246;42.664;23.308;2024-01-15T08:29:33;83.60;;;51.43;;
6426;SDS011;3246;42.664;23.308;2024-01-15T08:32:00;98.63;;;53.23;;
6426;SDS011;3246;42.664;23.308;2024-01-15T08:34:26;97.83;;;51.90;;
6426;SDS011;3246;42.664;23.308;2024-01-15T08:36:53;76.13;;;46.43;;
6426;SDS011;3246;42.664;23.308;2024-01-15T08:39:19;89.93;;;48.00;;
6426;SDS011;3246;42.664;23.308;2024-01-15T08:41:47;72.57;;;44.47;;
6426;SDS011;3246;42.664;23.308;2024-01-15T08:44:14;74.50;;;41.07;;
6426;SDS011;3246;42.664;23.308;2024-01-15T08:46:41;76.23;;;41.57;;
6426;SDS011;3246;42.664;23.308;2024-01-15T08:49:08;65.90;;;37.43;;
6426;SDS011;3246;42.664;23.308;2024-01-15T08:51:34;51.23;;;35.83;;
6426;SDS011;3246;42.664;23.308;2024-01-15T08:54:01;59.63;;;33.73;;
6426;SDS011;3246;42.664;23.308;2024-01-15T08:56:27;51.77;;;34.03;;
6426;SDS011;3246;42.664;23.308;2024-01-15T08:58:55;61.90;;;34.73;;
6426;SDS011;3246;42.664;23.308;2024-01-15T09:01:22;54.93;;;35.80;;
6426;SDS011;3246;42.664;23.308;2024-01-15T09:03:48;66.83;;;37.40;;
6426;SDS011;3246;42.664;23.308;2024-01-15T09:06:15;75.57;;;43.60;;
6426;SDS011;3246;42.664;23.308;2024-01-15T09:08:41;70.67;;;41.87;;
6426;SDS011;3246;42.664;23.308;2024-01-15T09:11:08;91.47;;;48.33;;
6426;SDS011;3246;42.664;23.308;2024-01-15T09:13:34;109.80;;;52.67;;
6426;SDS011;3246;42.664;23.308;2024-01-15T09:16:03;117.50;;;64.83;;
6426;SDS011;3246;42.664;23.308;2024-01-15T09:18:30;109.03;;;56.90;;
6426;SDS011;3246;42.664;23.308;2024-01-15T09:20:56;94.80;;;54.03;;
6426;SDS011;3246;42.664;23.308;2024-01-15T09:23:23;94.67;;;54.33;;
6426;SDS011;3246;42.664;23.308;2024-01-15T09:25:49;88.83;;;52.70;;
6426;SDS011;3246;42.664;23.308;2024-01-15T09:28:17;102.17;;;55.20;;
6426;SDS011;3246;42.664;23.308;2024-01-15T09:30:44;100.73;;;58.70;;
6426;SDS011;3246;42.664;23.308;2024-01-15T09:33:13;97.90;;;56.40;;
6426;SDS011;3246;42.664;23.308;2024-01-15T09:35:40;118.50;;;54.13;;
6426;SDS011;3246;42.664;23.308;2024-01-15T09:38:06;92.17;;;50.97;;
6426;SDS011;3246;42.664;23.308;2024-01-15T09:40:33;97.07;;;54.33;;
6426;SDS011;3246;42.664;23.308;2024-01-15T09:43:00;124.37;;;63.53;;
6426;SDS011;3246;42.664;23.308;2024-01-15T09:45:27;111.27;;;59.47;;
6426;SDS011;3246;42.664;23.308;2024-01-15T09:47:54;114.87;;;62.33;;
6426;SDS011;3246;42.664;23.308;2024-01-15T09:50:21;139.97;;;73.03;;
6426;SDS011;3246;42.664;23.308;2024-01-15T09:52:48;209.70;;;102.70;;
6426;SDS011;3246;42.664;23.308;2024-01-15T09:55:15;186.47;;;99.77;;
6426;SDS011;3246;42.664;23.308;2024-01-15T09:57:42;175.47;;;98.70;;
6426;SDS011;3246;42.664;23.308;2024-01-15T10:00:10;202.20;;;102.93;;
6426;SDS011;3246;42.664;23.308;2024-01-15T10:02:36;148.10;;;83.27;;
6426;SDS011;3246;42.664;23.308;2024-01-15T10:05:03;137.43;;;77.30;;
6426;SDS011;3246;42.664;23.308;2024-01-15T10:07:31;121.90;;;66.30;;
6426;SDS011;3246;42.664;23.308;2024-01-15T10:10:00;92.03;;;57.57;;
6426;SDS011;3246;42.664;23.308;2024-01-15T10:12:26;98.87;;;55.57;;
6426;SDS011;3246;42.664;23.308;2024-01-15T10:14:53;103.13;;;61.63;;
6426;SDS011;3246;42.664;23.308;2024-01-15T10:17:20;165.33;;;81.87;;
6426;SDS011;3246;42.664;23.308;2024-01-15T10:19:47;118.93;;;64.90;;
6426;SDS011;3246;42.664;23.308;2024-01-15T10:22:13;89.17;;;53.63;;
6426;SDS011;3246;42.664;23.308;2024-01-15T10:24:41;83.93;;;41.97;;
6426;SDS011;3246;42.664;23.308;2024-01-15T10:27:08;89.70;;;47.60;;
6426;SDS011;3246;42.664;23.308;2024-01-15T10:29:35;94.23;;;51.37;;
6426;SDS011;3246;42.664;23.308;2024-01-15T10:32:02;77.27;;;42.57;;
6426;SDS011;3246;42.664;23.308;2024-01-15T10:34:30;58.60;;;35.67;;
6426;SDS011;3246;42.664;23.308;2024-01-15T10:36:56;58.20;;;35.97;;
6426;SDS011;3246;42.664;23.308;2024-01-15T10:39:23;45.67;;;28.63;;
6426;SDS011;3246;42.664;23.308;2024-01-15T10:41:51;47.03;;;31.43;;
6426;SDS011;3246;42.664;23.308;2024-01-15T10:44:17;43.93;;;28.63;;
6426;SDS011;3246;42.664;23.308;2024-01-15T10:46:44;34.30;;;22.30;;
6426;SDS011;3246;42.664;23.308;2024-01-15T10:49:11;35.50;;;23.33;;
6426;SDS011;3246;42.664;23.308;2024-01-15T10:51:38;40.33;;;23.97;;
6426;SDS011;3246;42.664;23.308;2024-01-15T10:54:04;38.37;;;23.20;;
6426;SDS011;3246;42.664;23.308;2024-01-15T10:56:31;33.70;;;24.67;;
6426;SDS011;3246;42.664;23.308;2024-01-15T10:58:59;42.30;;;21.97;;
6426;SDS011;3246;42.664;23.308;2024-01-15T11:01:26;32.13;;;21.33;;
6426;SDS011;3246;42.664;23.308;2024-01-15T11:03:54;33.77;;;22.27;;
6426;SDS011;3246;42.664;23.308;2024-01-15T11:06:23;34.13;;;22.60;;
6426;SDS011;3246;42.664;23.308;2024-01-15T11:08:50;35.57;;;23.23;;
6426;SDS011;3246;42.664;23.308;2024-01-15T11:11:17;43.73;;;23.97;;
6426;SDS011;3246;42.664;23.308;2024-01-15T11:13:45;32.17;;;20.70;;
6426;SDS011;3246;42.664;23.308;2024-01-15T11:16:16;32.33;;;19.80;;
6426;SDS011;3246;42.664;23.308;2024-01-15T11:18:43;32.73;;;19.93;;
6426;SDS011;3246;42.664;23.308;2024-01-15T11:21:20;39.90;;;21.13;;
6426;SDS011;3246;42.664;23.308;2024-01-15T11:23:48;26.73;;;18.33;;
6426;SDS011;3246;42.664;23.308;2024-01-15T11:26:31;30.90;;;19.27;;
6426;SDS011;3246;42.664;23.308;2024-01-15T11:28:58;28.97;;;20.10;;
6426;SDS011;3246;42.664;23.308;2024-01-15T11:31:28;33.20;;;18.63;;
6426;SDS011;3246;42.664;23.308;2024-01-15T11:33:54;29.60;;;20.53;;
6426;SDS011;3246;42.664;23.308;2024-01-15T11:36:21;36.03;;;20.50;;
6426;SDS011;3246;42.664;23.308;2024-01-15T11:38:47;39.97;;;21.00;;
6426;SDS011;3246;42.664;23.308;2024-01-15T11:41:14;32.70;;;20.87;;
6426;SDS011;3246;42.664;23.308;2024-01-15T11:43:41;38.03;;;22.57;;
6426;SDS011;3246;42.664;23.308;2024-01-15T11:46:09;31.17;;;20.07;;
6426;SDS011;3246;42.664;23.308;2024-01-15T11:48:40;37.57;;;20.83;;
6426;SDS011;3246;42.664;23.308;2024-01-15T11:51:08;29.07;;;19.63;;
6426;SDS011;3246;42.664;23.308;2024-01-15T11:53:45;42.97;;;20.37;;
6426;SDS011;3246;42.664;23.308;2024-01-15T11:56:15;34.73;;;20.27;;
6426;SDS011;3246;42.664;23.308;2024-01-15T11:58:42;25.93;;;18.10;;
6426;SDS011;3246;42.664;23.308;2024-01-15T12:01:08;31.77;;;20.77;;
6426;SDS011;3246;42.664;23.308;2024-01-15T12:03:35;27.53;;;18.50;;
6426;SDS011;3246;42.664;23.308;2024-01-15T12:06:04;32.13;;;18.53;;
6426;SDS011;3246;42.664;23.308;2024-01-15T12:08:31;31.70;;;19.63;;
6426;SDS011;3246;42.664;23.308;2024-01-15T12:10:57;26.17;;;18.27;;
6426;SDS011;3246;42.664;23.308;2024-01-15T12:13:24;34.20;;;19.97;;
6426;SDS011;3246;42.664;23.308;2024-01-15T12:15:50;34.87;;;19.87;;
6426;SDS011;3246;42.664;23.308;2024-01-15T12:18:17;35.13;;;21.17;;
6426;SDS011;3246;42.664;23.308;2024-01-15T12:20:45;31.03;;;21.27;;
6426;SDS011;3246;42.664;23.308;2024-01-15T12:23:14;31.60;;;18.43;;
6426;SDS011;3246;42.664;23.308;2024-01-15T12:25:40;28.27;;;18.93;;
6426;SDS011;3246;42.664;23.308;2024-01-15T12:28:07;32.43;;;22.27;;
6426;SDS011;3246;42.664;23.308;2024-01-15T12:30:34;34.47;;;21.43;;
6426;SDS011;3246;42.664;23.308;2024-01-15T12:33:01;33.13;;;22.40;;
6426;SDS011;3246;42.664;23.308;2024-01-15T12:35:28;31.43;;;21.00;;
6426;SDS011;3246;42.664;23.308;2024-01-15T12:37:55;40.50;;;23.03;;
6426;SDS011;3246;42.664;23.308;2024-01-15T12:40:23;41.90;;;21.67;;
6426;SDS011;3246;42.664;23.308;2024-01-15T12:42:50;37.03;;;20.63;;
6426;SDS011;3246;42.664;23.308;2024-01-15T12:45:17;40.13;;;21.20;;
6426;SDS011;3246;42.664;23.308;2024-01-15T12:47:43;34.00;;;21.20;;
6426;SDS011;3246;42.664;23.308;2024-01-15T12:50:10;33.97;;;22.37;;
6426;SDS011;3246;42.664;23.308;2024-01-15T12:52:38;34.77;;;21.97;;
6426;SDS011;3246;42.664;23.308;2024-01-15T12:55:06;39.40;;;23.13;;
6426;SDS011;3246;42.664;23.308;2024-01-15T12:57:35;31.30;;;20.60;;
6426;SDS011;3246;42.664;23.308;2024-01-15T13:00:02;37.63;;;22.57;;
6426;SDS011;3246;42.664;23.308;2024-01-15T13:02:32;44.93;;;23.73;;
6426;SDS011;3246;42.664;23.308;2024-01-15T13:04:58;49.80;;;23.37;;
6426;SDS011;3246;42.664;23.308;2024-01-15T13:07:25;32.37;;;20.20;;
6426;SDS011;3246;42.664;23.308;2024-01-15T13:09:51;32.00;;;20.80;;
6426;SDS011;3246;42.664;23.308;2024-01-15T13:12:18;31.87;;;20.47;;
6426;SDS011;3246;42.664;23.308;2024-01-15T13:14:46;32.13;;;20.60;;
6426;SDS011;3246;42.664;23.308;2024-01-15T13:17:13;33.10;;;20.93;;
6426;SDS011;3246;42.664;23.308;2024-01-15T13:19:40;30.60;;;21.00;;
6426;SDS011;3246;42.664;23.308;2024-01-15T13:22:06;35.97;;;21.77;;
6426;SDS011;3246;42.664;23.308;2024-01-15T13:24:34;37.70;;;22.90;;
6426;SDS011;3246;42.664;23.308;2024-01-15T13:27:01;38.43;;;22.83;;
6426;SDS011;3246;42.664;23.308;2024-01-15T13:29:27;30.80;;;21.50;;
6426;SDS011;3246;42.664;23.308;2024-01-15T13:31:55;44.13;;;22.43;;
6426;SDS011;3246;42.664;23.308;2024-01-15T13:34:22;34.67;;;21.93;;
6426;SDS011;3246;42.664;23.308;2024-01-15T13:36:49;39.80;;;21.43;;
6426;SDS011;3246;42.664;23.308;2024-01-15T13:39:16;39.67;;;23.70;;
6426;SDS011;3246;42.664;23.308;2024-01-15T13:41:45;50.17;;;24.43;;
6426;SDS011;3246;42.664;23.308;2024-01-15T13:44:12;38.40;;;21.13;;
6426;SDS011;3246;42.664;23.308;2024-01-15T13:46:39;29.60;;;19.63;;
6426;SDS011;3246;42.664;23.308;2024-01-15T13:49:07;27.63;;;18.87;;
6426;SDS011;3246;42.664;23.308;2024-01-15T13:51:34;33.87;;;20.73;;
6426;SDS011;3246;42.664;23.308;2024-01-15T13:54:01;36.67;;;19.43;;
6426;SDS011;3246;42.664;23.308;2024-01-15T13:56:29;28.90;;;18.90;;
6426;SDS011;3246;42.664;23.308;2024-01-15T13:58:57;28.90;;;18.07;;
6426;SDS011;3246;42.664;23.308;2024-01-15T14:01:24;44.17;;;21.63;;
6426;SDS011;3246;42.664;23.308;2024-01-15T14:03:51;27.97;;;18.03;;
6426;SDS011;3246;42.664;23.308;2024-01-15T14:06:19;32.13;;;18.33;;
6426;SDS011;3246;42.664;23.308;2024-01-15T14:08:45;26.83;;;18.87;;
6426;SDS011;3246;42.664;23.308;2024-01-15T14:11:12;32.40;;;20.87;;
6426;SDS011;3246;42.664;23.308;2024-01-15T14:13:38;27.83;;;20.07;;
6426;SDS011;3246;42.664;23.308;2024-01-15T14:16:05;32.90;;;19.23;;
6426;SDS011;3246;42.664;23.308;2024-01-15T14:18:31;35.73;;;18.97;;
6426;SDS011;3246;42.664;23.308;2024-01-15T14:20:58;30.37;;;18.97;;
6426;SDS011;3246;42.664;23.308;2024-01-15T14:23:26;29.70;;;17.73;;
6426;SDS011;3246;42.664;23.308;2024-01-15T14:25:52;33.50;;;20.87;;